Погода Едушна 2 недели

Ростовская область, Россия

21 мая-02 июня
  • 21мая
    Сегодня
    +11°
    +25°
    Практически безоблачно
    ВремяПогодаТемператураВлажностьДавлениеВетер, м/сВероятность осадков
    00:00Ясно и безоблачно+13°C76 %760 мм1.3 м/с2 %
    03:00Ясно и безоблачно+11°C85 %760 мм1.9 м/с2 %
    06:00Ясно и безоблачно+12°C78 %760 мм2.2 м/с2 %
    09:00Практически безоблачно+22°C50 %761 мм1.6 м/с2 %
    12:00Практически безоблачно+25°C39 %761 мм2.5 м/с2 %
    15:00Практически безоблачно+26°C37 %761 мм2.3 м/с2 %
    18:00Ясно и безоблачно+23°C39 %760 мм1.8 м/с2 %
    21:00Ясно и безоблачно+18°C62 %760 мм1.8 м/с2 %
  • 22мая
    Среда
    +12°
    +28°
    Ясно и безоблачно
    ВремяПогодаТемператураВлажностьДавлениеВетер, м/сВероятность осадков
    00:00Ясно и безоблачно+15°C66 %760 мм2.6 м/с2 %
    03:00Ясно и безоблачно+12°C71 %759 мм1.9 м/с2 %
    06:00Ясно и безоблачно+13°C60 %759 мм2.9 м/с2 %
    09:00Ясно и безоблачно+24°C38 %760 мм3.0 м/с2 %
    12:00Ясно и безоблачно+27°C23 %759 мм4.0 м/с2 %
    15:00Ясно и безоблачно+28°C23 %758 мм4.0 м/с2 %
    18:00Ясно и безоблачно+25°C30 %757 мм1.8 м/с2 %
    21:00Ясно и безоблачно+18°C42 %758 мм2.3 м/с2 %
  • 23мая
    Четверг
    +15°
    +29°
    Ясно и безоблачно
    ВремяПогодаТемператураВлажностьДавлениеВетер, м/сВероятность осадков
    00:00Ясно и безоблачно+15°C51 %758 мм2.2 м/с2 %
    03:00Ясно и безоблачно+13°C54 %757 мм2.0 м/с2 %
    06:00Ясно и безоблачно+14°C53 %758 мм2.9 м/с2 %
    09:00Ясно и безоблачно+24°C41 %758 мм3.1 м/с2 %
    12:00Ясно и безоблачно+27°C28 %758 мм5.6 м/с2 %
    15:00Ясно и безоблачно+29°C24 %757 мм5.4 м/с2 %
    18:00Ясно и безоблачно+26°C26 %757 мм4.9 м/с4 %
    21:00Ясно и безоблачно+20°C41 %758 мм5.8 м/с2 %
  • 24мая
    Пятница
    +13°
    +28°
    Ясно и безоблачно
    ВремяПогодаТемператураВлажностьДавлениеВетер, м/сВероятность осадков
    00:00Ясно и безоблачно+18°C57 %759 мм5.5 м/с2 %
    03:00Ясно и безоблачно+16°C65 %759 мм6.0 м/с2 %
    06:00Ясно и безоблачно+16°C62 %761 мм7.0 м/с2 %
    09:00Ясно и безоблачно+21°C40 %762 мм7.9 м/с2 %
    12:00Ясно и безоблачно+25°C33 %762 мм8.7 м/с2 %
    15:00Ясно и безоблачно+27°C29 %762 мм7.9 м/с5 %
    18:00Ясно и безоблачно+24°C24 %762 мм7.8 м/с5 %
    21:00Ясно и безоблачно+19°C26 %763 мм6.6 м/с2 %
Мы используем cookies
Соглашаюсь